Time;durP1;ratioP1;P1;durP2;ratioP2;P2;SDS_P1;SDS_P2;PMS_P1;PMS_P2;Temp;Humidity;BMP_temperature;BMP_pressure;BME280_temperature;BME280_humidity;BME280_pressure;Samples;Min_cycle;Max_cycle;Signal;HPM_P1;HPM_P2
2024/02/01 00:02:22;;;;;;;;;;;17.20;62.20;;;;;;5019549;28;1456;-71
2024/02/01 00:04:48;;;;;;;;;;;17.20;62.20;;;;;;5019586;28;1536;-70
2024/02/01 00:07:13;;;;;;;;;;;17.20;62.20;;;;;;5020322;28;1614;-70
2024/02/01 00:09:39;;;;;;;;;;;17.20;62.20;;;;;;5018980;28;1922;-71
2024/02/01 00:12:04;;;;;;;;;;;17.20;62.20;;;;;;5020785;28;1507;-70
2024/02/01 00:14:30;;;;;;;;;;;17.20;62.20;;;;;;5018912;28;1461;-70
2024/02/01 00:16:55;;;;;;;;;;;17.20;62.30;;;;;;5023451;28;1507;-71
2024/02/01 00:19:21;;;;;;;;;;;17.20;62.30;;;;;;5019517;28;1136;-71
2024/02/01 00:21:48;;;;;;;;;;;17.20;62.30;;;;;;5020218;28;1205;-70
2024/02/01 00:24:14;;;;;;;;;;;17.20;62.30;;;;;;5019635;28;1695;-70
2024/02/01 00:26:39;;;;;;;;;;;17.20;62.40;;;;;;5018319;28;1644;-70
2024/02/01 00:29:05;;;;;;;;;;;17.10;62.30;;;;;;5019406;28;1902;-70
2024/02/01 00:31:30;;;;;;;;;;;17.10;62.30;;;;;;5019010;28;1452;-71
2024/02/01 00:33:56;;;;;;;;;;;17.10;63.00;;;;;;5018637;28;1619;-70
2024/02/01 00:36:21;;;;;;;;;;;17.10;62.30;;;;;;5018206;28;1425;-70
2024/02/01 00:38:47;;;;;;;;;;;17.20;62.40;;;;;;5018623;28;1610;-71
2024/02/01 00:41:12;;;;;;;;;;;17.20;62.40;;;;;;5017381;28;1291;-71
2024/02/01 00:43:38;;;;;;;;;;;17.10;62.30;;;;;;5018443;28;1088;-71
2024/02/01 00:46:04;;;;;;;;;;;17.10;62.40;;;;;;5018647;28;1464;-71
2024/02/01 00:48:30;;;;;;;;;;;17.10;62.40;;;;;;5018484;28;1968;-71
2024/02/01 00:50:55;;;;;;;;;;;17.10;62.40;;;;;;5020498;28;1297;-71
2024/02/01 00:53:23;;;;;;;;;;;17.10;62.40;;;;;;5018316;28;1445;-70
2024/02/01 00:55:49;;;;;;;;;;;17.10;62.40;;;;;;5020427;28;1351;-70
2024/02/01 00:58:14;;;;;;;;;;;17.10;62.40;;;;;;5019241;28;1451;-70
2024/02/01 01:00:40;;;;;;;;;;;17.10;62.40;;;;;;5019261;28;1433;-71
2024/02/01 01:03:05;;;;;;;;;;;17.10;62.40;;;;;;5018054;28;1736;-70
2024/02/01 01:05:32;;;;;;;;;;;17.10;62.40;;;;;;5020332;28;1690;-70
2024/02/01 01:07:57;;;;;;;;;;;17.10;62.40;;;;;;5024216;28;1906;-70
2024/02/01 01:10:23;;;;;;;;;;;17.10;62.50;;;;;;5020391;28;1250;-70
2024/02/01 01:12:48;;;;;;;;;;;17.10;62.50;;;;;;5017280;28;1731;-70
2024/02/01 01:15:13;;;;;;;;;;;17.10;62.50;;;;;;5017461;28;1315;-71
2024/02/01 01:17:39;;;;;;;;;;;17.10;62.50;;;;;;5017776;28;1272;-69
2024/02/01 01:20:05;;;;;;;;;;;17.10;62.50;;;;;;5016985;28;1286;-70
2024/02/01 01:22:30;;;;;;;;;;;17.10;62.50;;;;;;5020200;28;951;-70
2024/02/01 01:24:56;;;;;;;;;;;17.10;62.50;;;;;;5019151;28;1289;-70
2024/02/01 01:27:21;;;;;;;;;;;17.10;62.60;;;;;;5017084;28;1233;-70
2024/02/01 01:29:47;;;;;;;;;;;17.00;62.50;;;;;;5020016;28;1926;-70
2024/02/01 01:32:14;;;;;;;;;;;17.10;62.60;;;;;;5017508;28;1524;-70
2024/02/01 01:34:39;;;;;;;;;;;17.10;62.60;;;;;;5019111;28;1201;-70
2024/02/01 01:37:05;;;;;;;;;;;17.10;62.60;;;;;;5020246;28;1292;-70
2024/02/01 01:39:30;;;;;;;;;;;17.10;62.60;;;;;;5013936;28;1670;-70
2024/02/01 01:41:56;;;;;;;;;;;17.10;62.60;;;;;;5018904;28;1582;-70
2024/02/01 01:44:21;;;;;;;;;;;17.10;62.60;;;;;;5022774;28;1503;-70
2024/02/01 01:46:47;;;;;;;;;;;17.00;62.60;;;;;;5017573;28;1407;-70
2024/02/01 01:49:12;;;;;;;;;;;17.10;62.60;;;;;;5018934;28;1906;-70
2024/02/01 01:51:37;;;;;;;;;;;17.00;62.60;;;;;;5015794;28;1210;-69
2024/02/01 01:54:04;;;;;;;;;;;17.10;62.60;;;;;;5025396;28;1397;-70
2024/02/01 01:56:31;;;;;;;;;;;17.00;62.60;;;;;;5019295;28;1320;-70
2024/02/01 01:58:57;;;;;;;;;;;17.00;62.70;;;;;;5023518;28;1266;-69
2024/02/01 02:01:22;;;;;;;;;;;17.10;62.70;;;;;;5026445;28;1248;-71
2024/02/01 02:03:48;;;;;;;;;;;17.00;62.60;;;;;;5022754;28;1396;-70
2024/02/01 02:06:13;;;;;;;;;;;17.00;62.70;;;;;;5019033;28;1397;-70
2024/02/01 02:08:38;;;;;;;;;;;17.00;62.70;;;;;;5018286;28;1930;-70
2024/02/01 02:11:04;;;;;;;;;;;17.10;62.80;;;;;;5023946;28;1369;-70
2024/02/01 02:13:29;;;;;;;;;;;17.00;62.70;;;;;;5022899;28;1463;-70
2024/02/01 02:15:55;;;;;;;;;;;17.00;62.70;;;;;;5024432;28;1436;-71
2024/02/01 02:18:24;;;;;;;;;;;17.00;62.70;;;;;;5024712;28;1406;-70
2024/02/01 02:20:50;;;;;;;;;;;17.00;62.70;;;;;;5023995;28;1466;-70
2024/02/01 02:23:15;;;;;;;;;;;17.00;62.70;;;;;;5021981;28;1346;-70
2024/02/01 02:25:41;;;;;;;;;;;17.00;62.70;;;;;;5020755;28;1538;-70
2024/02/01 02:28:06;;;;;;;;;;;17.00;62.70;;;;;;5024822;28;2117;-69
2024/02/01 02:30:32;;;;;;;;;;;17.00;62.70;;;;;;5022686;28;1220;-71
2024/02/01 02:32:58;;;;;;;;;;;17.00;62.70;;;;;;5022925;28;1505;-72
2024/02/01 02:35:23;;;;;;;;;;;17.00;62.80;;;;;;5021458;28;1728;-70
2024/02/01 02:37:49;;;;;;;;;;;17.00;62.80;;;;;;5023839;28;1397;-72
2024/02/01 02:40:15;;;;;;;;;;;17.00;62.70;;;;;;5020858;28;1441;-71
2024/02/01 02:42:42;;;;;;;;;;;17.00;62.70;;;;;;5026362;28;1542;-70
2024/02/01 02:45:08;;;;;;;;;;;17.00;62.70;;;;;;5023287;28;1514;-70
2024/02/01 02:47:33;;;;;;;;;;;17.00;62.80;;;;;;5022336;28;1381;-72
2024/02/01 02:49:59;;;;;;;;;;;17.00;62.80;;;;;;5019714;28;1941;-69
2024/02/01 02:52:24;;;;;;;;;;;17.00;62.80;;;;;;5021883;28;1452;-70
2024/02/01 02:54:50;;;;;;;;;;;17.00;62.80;;;;;;5023027;28;1400;-70
2024/02/01 02:57:15;;;;;;;;;;;17.00;62.80;;;;;;5022442;28;1387;-71
2024/02/01 02:59:41;;;;;;;;;;;17.00;62.80;;;;;;5022765;28;1277;-70
2024/02/01 03:02:06;;;;;;;;;;;17.00;62.80;;;;;;5020114;28;1896;-70
2024/02/01 03:04:35;;;;;;;;;;;17.00;62.80;;;;;;5021884;28;1397;-70
2024/02/01 03:07:01;;;;;;;;;;;17.00;62.80;;;;;;5022714;28;1544;-70
2024/02/01 03:09:26;;;;;;;;;;;17.00;62.80;;;;;;5021431;28;1906;-69
2024/02/01 03:11:52;;;;;;;;;;;17.00;62.80;;;;;;5018903;28;1233;-71
2024/02/01 03:14:17;;;;;;;;;;;17.00;62.80;;;;;;5020346;28;1306;-69
2024/02/01 03:16:42;;;;;;;;;;;17.00;62.90;;;;;;5028327;28;1464;-71
2024/02/01 03:19:11;;;;;;;;;;;17.00;62.90;;;;;;5021900;28;1363;-70
2024/02/01 03:21:36;;;;;;;;;;;17.00;62.90;;;;;;5020575;28;1330;-72
2024/02/01 03:24:02;;;;;;;;;;;17.00;62.90;;;;;;5018438;28;1578;-71
2024/02/01 03:26:34;;;;;;;;;;;17.00;62.90;;;;;;5021126;28;1553;-71
2024/02/01 03:29:00;;;;;;;;;;;16.90;62.90;;;;;;5020679;28;1874;-70
2024/02/01 03:31:33;;;;;;;;;;;17.00;62.90;;;;;;5021118;28;1370;-69
2024/02/01 03:34:01;;;;;;;;;;;17.00;62.90;;;;;;5022966;28;1417;-70
2024/02/01 03:36:26;;;;;;;;;;;17.00;62.90;;;;;;5021128;28;1576;-71
2024/02/01 03:38:52;;;;;;;;;;;16.90;62.90;;;;;;5018434;28;1560;-71
2024/02/01 03:41:18;;;;;;;;;;;16.90;62.90;;;;;;5020710;28;1223;-71
2024/02/01 03:43:43;;;;;;;;;;;17.00;62.90;;;;;;5028505;28;1462;-71
2024/02/01 03:46:08;;;;;;;;;;;17.00;62.90;;;;;;5022982;28;942;-71
2024/02/01 03:48:34;;;;;;;;;;;16.90;62.90;;;;;;5018184;28;1922;-70
2024/02/01 03:51:00;;;;;;;;;;;16.90;62.90;;;;;;5018672;28;1445;-70
2024/02/01 03:53:26;;;;;;;;;;;17.00;63.00;;;;;;5018165;28;1460;-71
2024/02/01 03:55:51;;;;;;;;;;;17.00;63.00;;;;;;5021034;28;1463;-69
2024/02/01 03:58:16;;;;;;;;;;;16.90;62.90;;;;;;5021564;28;1348;-68
2024/02/01 04:00:42;;;;;;;;;;;16.90;62.90;;;;;;5022362;28;1095;-68
2024/02/01 04:03:14;;;;;;;;;;;17.00;63.00;;;;;;5017943;28;1325;-68
2024/02/01 04:05:40;;;;;;;;;;;16.90;63.00;;;;;;5018606;28;1238;-68
2024/02/01 04:08:06;;;;;;;;;;;16.90;63.00;;;;;;5020542;28;1910;-68
2024/02/01 04:10:32;;;;;;;;;;;16.90;63.00;;;;;;5020458;28;1341;-69
2024/02/01 04:12:58;;;;;;;;;;;16.90;63.00;;;;;;5014981;28;1538;-69
2024/02/01 04:15:23;;;;;;;;;;;16.90;63.10;;;;;;5018480;28;1370;-69
2024/02/01 04:17:49;;;;;;;;;;;16.90;63.00;;;;;;5021426;28;1543;-68
2024/02/01 04:20:15;;;;;;;;;;;16.90;63.00;;;;;;5018944;28;1441;-68
2024/02/01 04:22:41;;;;;;;;;;;16.90;63.00;;;;;;5018136;28;1433;-69
2024/02/01 04:25:08;;;;;;;;;;;16.90;63.00;;;;;;5018684;28;1661;-70
2024/02/01 04:27:34;;;;;;;;;;;16.90;63.10;;;;;;5023410;28;1354;-69
2024/02/01 04:30:00;;;;;;;;;;;16.90;63.00;;;;;;5022094;28;1992;-70
2024/02/01 04:32:26;;;;;;;;;;;16.90;63.00;;;;;;5017656;28;1556;-70
2024/02/01 04:34:51;;;;;;;;;;;16.90;63.00;;;;;;5018590;28;1371;-70
2024/02/01 04:37:18;;;;;;;;;;;16.90;63.00;;;;;;5018373;28;1378;-69
2024/02/01 04:39:45;;;;;;;;;;;16.90;63.00;;;;;;5019349;28;1264;-72
2024/02/01 04:42:14;;;;;;;;;;;16.90;63.10;;;;;;5019560;28;938;-70
2024/02/01 04:44:50;;;;;;;;;;;16.90;63.10;;;;;;5020188;28;991;-68
2024/02/01 04:47:15;;;;;;;;;;;16.90;63.10;;;;;;5017643;28;1213;-69
2024/02/01 04:49:40;;;;;;;;;;;16.90;63.10;;;;;;5018526;28;1953;-68
2024/02/01 04:52:06;;;;;;;;;;;16.90;63.10;;;;;;5019991;28;1434;-68
2024/02/01 04:54:34;;;;;;;;;;;16.90;63.10;;;;;;5027232;28;1264;-69
2024/02/01 04:57:03;;;;;;;;;;;16.90;63.10;;;;;;5016917;28;1399;-71
2024/02/01 04:59:28;;;;;;;;;;;16.90;63.10;;;;;;5025572;28;1412;-70
2024/02/01 05:01:54;;;;;;;;;;;16.90;63.10;;;;;;5016566;28;1524;-71
2024/02/01 05:04:19;;;;;;;;;;;16.90;63.10;;;;;;5017987;28;1420;-69
2024/02/01 05:06:44;;;;;;;;;;;16.90;63.10;;;;;;5026692;28;1532;-69
2024/02/01 05:09:32;;;;;;;;;;;16.90;63.20;;;;;;5017835;28;1981;-69
2024/02/01 05:11:57;;;;;;;;;;;16.90;63.10;;;;;;5018078;28;1447;-68
2024/02/01 05:14:23;;;;;;;;;;;16.90;63.00;;;;;;5020509;28;1272;-69
2024/02/01 05:16:50;;;;;;;;;;;17.00;63.00;;;;;;5017466;28;1481;-70
2024/02/01 05:19:18;;;;;;;;;;;17.00;62.90;;;;;;5018865;28;1263;-70
2024/02/01 05:21:43;;;;;;;;;;;17.00;62.80;;;;;;5017993;28;1253;-70
2024/02/01 05:24:13;;;;;;;;;;;17.00;62.70;;;;;;5020361;28;1210;-72
2024/02/01 05:26:50;;;;;;;;;;;17.10;62.60;;;;;;5017638;28;1323;-70
2024/02/01 05:29:17;;;;;;;;;;;17.10;62.50;;;;;;5018141;28;1898;-70
2024/02/01 05:31:47;;;;;;;;;;;17.10;62.40;;;;;;5019385;28;1289;-68
2024/02/01 05:34:16;;;;;;;;;;;17.20;62.30;;;;;;5025349;28;1314;-68
2024/02/01 05:36:42;;;;;;;;;;;17.20;62.10;;;;;;5022439;28;1484;-67
2024/02/01 05:39:24;;;;;;;;;;;17.20;62.00;;;;;;5023629;28;1281;-68
2024/02/01 05:41:56;;;;;;;;;;;17.30;61.90;;;;;;5021571;28;1480;-68
2024/02/01 05:44:21;;;;;;;;;;;17.30;61.90;;;;;;5018577;28;1565;-69
2024/02/01 05:46:48;;;;;;;;;;;17.30;61.70;;;;;;5027030;28;1837;-68
2024/02/01 05:49:18;;;;;;;;;;;17.30;61.60;;;;;;5023416;28;1963;-68
2024/02/01 05:51:47;;;;;;;;;;;17.30;61.60;;;;;;5030677;28;1363;-68
2024/02/01 05:54:12;;;;;;;;;;;17.40;61.60;;;;;;5021493;28;1515;-67
2024/02/01 05:56:38;;;;;;;;;;;17.40;61.50;;;;;;5020138;28;1614;-70
2024/02/01 05:59:03;;;;;;;;;;;17.40;61.40;;;;;;5018544;28;1532;-68
2024/02/01 06:01:30;;;;;;;;;;;17.40;61.40;;;;;;5019239;28;836;-69
2024/02/01 06:03:56;;;;;;;;;;;17.40;61.30;;;;;;5024312;28;1536;-68
2024/02/01 06:06:21;;;;;;;;;;;17.40;61.20;;;;;;5021043;28;1579;-69
2024/02/01 06:08:47;;;;;;;;;;;17.50;61.30;;;;;;5025268;28;1907;-69
2024/02/01 06:11:12;;;;;;;;;;;17.50;61.20;;;;;;5025070;28;1340;-71
2024/02/01 06:13:44;;;;;;;;;;;17.50;61.20;;;;;;5022140;28;970;-69
2024/02/01 06:16:12;;;;;;;;;;;17.50;61.20;;;;;;5024840;28;1284;-69
2024/02/01 06:18:39;;;;;;;;;;;17.50;61.20;;;;;;5024000;28;1330;-70
2024/02/01 06:21:05;;;;;;;;;;;17.50;61.10;;;;;;5020416;28;1499;-70
2024/02/01 06:23:30;;;;;;;;;;;17.50;61.10;;;;;;5030267;28;1572;-70
2024/02/01 06:25:56;;;;;;;;;;;17.50;61.10;;;;;;5022566;28;1319;-70
2024/02/01 06:28:24;;;;;;;;;;;17.50;61.00;;;;;;5020309;28;1902;-70
2024/02/01 06:30:50;;;;;;;;;;;17.50;61.00;;;;;;5018950;28;1476;-70
2024/02/01 06:33:16;;;;;;;;;;;17.50;61.00;;;;;;5023333;28;1458;-72
2024/02/01 06:35:43;;;;;;;;;;;17.50;61.00;;;;;;5024089;28;1226;-71
2024/02/01 06:38:22;;;;;;;;;;;17.50;61.00;;;;;;5021276;28;1702;-72
2024/02/01 06:40:56;;;;;;;;;;;17.50;61.00;;;;;;5020357;28;1331;-71
2024/02/01 06:46:01;;;;;;;;;;;17.50;61.00;;;;;;5020627;28;1540;-71
2024/02/01 06:48:40;;;;;;;;;;;17.50;61.00;;;;;;5021726;28;1950;-72
2024/02/01 06:51:20;;;;;;;;;;;17.50;61.00;;;;;;5019921;28;1252;-71
2024/02/01 06:53:56;;;;;;;;;;;17.50;61.00;;;;;;5018945;28;1429;-69
2024/02/01 06:56:44;;;;;;;;;;;17.50;61.00;;;;;;5022296;28;1368;-69
2024/02/01 06:59:29;;;;;;;;;;;17.50;61.00;;;;;;5021452;28;1657;-69
2024/02/01 07:02:03;;;;;;;;;;;17.50;61.10;;;;;;5022013;28;1282;-70
2024/02/01 07:04:41;;;;;;;;;;;17.50;61.10;;;;;;5020136;28;1569;-70
2024/02/01 07:07:18;;;;;;;;;;;17.50;61.10;;;;;;5026098;28;1926;-70
2024/02/01 07:09:57;;;;;;;;;;;17.50;61.10;;;;;;5021373;28;1995;-70
2024/02/01 07:12:42;;;;;;;;;;;17.50;61.10;;;;;;5017668;28;1425;-71
2024/02/01 07:15:30;;;;;;;;;;;17.50;61.10;;;;;;5027793;28;1588;-71
2024/02/01 07:17:59;;;;;;;;;;;17.50;61.10;;;;;;5021469;28;1415;-72
2024/02/01 07:20:35;;;;;;;;;;;17.50;61.20;;;;;;5023475;28;1387;-69
2024/02/01 07:23:33;;;;;;;;;;;17.50;61.20;;;;;;5020543;28;1449;-68
2024/02/01 07:26:00;;;;;;;;;;;17.50;61.20;;;;;;5019173;28;1536;-71
2024/02/01 07:58:39;;;;;;;;;;;17.40;61.60;;;;;;5018118;28;1327;-69
2024/02/01 08:01:14;;;;;;;;;;;17.40;61.60;;;;;;5021357;28;1287;-70
2024/02/01 08:03:56;;;;;;;;;;;17.40;61.60;;;;;;5019909;28;1510;-69
2024/02/01 08:09:12;;;;;;;;;;;17.40;61.70;;;;;;5020841;28;1910;-70
2024/02/01 08:11:38;;;;;;;;;;;17.40;61.70;;;;;;5016535;28;1791;-70
2024/02/01 08:14:06;;;;;;;;;;;17.40;61.70;;;;;;5019122;28;1410;-71
2024/02/01 08:16:32;;;;;;;;;;;17.30;61.60;;;;;;5018723;28;1472;-71
2024/02/01 08:18:59;;;;;;;;;;;17.30;61.60;;;;;;5019981;28;1170;-71
2024/02/01 08:21:26;;;;;;;;;;;17.30;61.60;;;;;;5019939;28;1524;-71
2024/02/01 08:23:54;;;;;;;;;;;17.30;61.70;;;;;;5020366;28;1474;-71
2024/02/01 08:26:20;;;;;;;;;;;17.30;61.70;;;;;;5019450;28;1466;-70
2024/02/01 08:28:45;;;;;;;;;;;17.30;61.70;;;;;;5018852;28;2128;-68
2024/02/01 08:31:17;;;;;;;;;;;17.30;61.70;;;;;;5018658;28;1566;-71
2024/02/01 08:33:44;;;;;;;;;;;17.30;61.70;;;;;;5020232;28;1299;-72
2024/02/01 08:36:12;;;;;;;;;;;17.30;61.70;;;;;;5026990;28;1346;-69
2024/02/01 08:38:38;;;;;;;;;;;17.30;61.70;;;;;;5017624;28;1289;-69
2024/02/01 08:41:04;;;;;;;;;;;17.30;61.70;;;;;;5016748;28;1877;-69
2024/02/01 08:43:30;;;;;;;;;;;17.30;61.60;;;;;;5019131;28;1487;-69
2024/02/01 08:45:56;;;;;;;;;;;17.40;61.70;;;;;;5016403;28;1366;-69
2024/02/01 08:48:24;;;;;;;;;;;17.40;61.70;;;;;;5019538;28;1963;-69
2024/02/01 08:50:50;;;;;;;;;;;17.40;61.70;;;;;;5017529;28;1305;-70
2024/02/01 08:53:17;;;;;;;;;;;17.40;61.60;;;;;;5018593;28;1513;-69
2024/02/01 08:55:43;;;;;;;;;;;17.40;61.50;;;;;;5017260;28;1495;-71
2024/02/01 08:58:08;;;;;;;;;;;17.40;62.20;;;;;;5019359;28;1276;-69
2024/02/01 09:00:34;;;;;;;;;;;17.40;61.50;;;;;;5019340;28;1521;-69
2024/02/01 09:03:03;;;;;;;;;;;17.40;61.40;;;;;;5015498;28;1545;-69
2024/02/01 09:05:49;;;;;;;;;;;17.40;61.40;;;;;;5018285;28;1451;-69
2024/02/01 09:08:15;;;;;;;;;;;17.50;61.40;;;;;;5016074;28;1969;-69
2024/02/01 09:10:50;;;;;;;;;;;17.50;61.30;;;;;;5016625;28;1630;-69
2024/02/01 09:13:19;;;;;;;;;;;17.50;61.30;;;;;;5018901;28;1349;-70
2024/02/01 09:15:45;;;;;;;;;;;17.50;61.20;;;;;;5018055;28;1434;-70
2024/02/01 09:18:10;;;;;;;;;;;17.50;61.20;;;;;;5018970;28;1647;-69
2024/02/01 09:20:36;;;;;;;;;;;17.50;61.20;;;;;;5017071;28;1343;-69
2024/02/01 09:23:02;;;;;;;;;;;17.50;61.20;;;;;;5016201;28;1408;-70
2024/02/01 09:25:27;;;;;;;;;;;17.50;61.10;;;;;;5018549;28;1631;-67
2024/02/01 09:27:53;;;;;;;;;;;17.50;61.20;;;;;;5017287;28;1736;-68
2024/02/01 09:30:19;;;;;;;;;;;17.50;61.20;;;;;;5017129;28;1894;-70
2024/02/01 09:32:54;;;;;;;;;;;17.50;61.20;;;;;;5018967;28;1588;-70
2024/02/01 09:35:22;;;;;;;;;;;17.50;61.20;;;;;;5016434;28;1378;-69
2024/02/01 09:37:51;;;;;;;;;;;17.50;61.30;;;;;;5016744;28;1657;-70
2024/02/01 09:40:17;;;;;;;;;;;17.50;61.30;;;;;;5017502;28;1587;-69
2024/02/01 09:42:43;;;;;;;;;;;17.50;61.30;;;;;;5018555;28;1168;-71
2024/02/01 09:45:09;;;;;;;;;;;17.50;61.40;;;;;;5001033;28;1544;-70
2024/02/01 09:47:43;;;;;;;;;;;17.40;61.30;;;;;;5016258;28;1388;-70
2024/02/01 09:50:15;;;;;;;;;;;17.50;61.40;;;;;;5016587;28;1899;-69
2024/02/01 09:52:42;;;;;;;;;;;17.50;61.40;;;;;;5013212;28;1525;-70
2024/02/01 09:55:08;;;;;;;;;;;17.50;61.40;;;;;;5014376;28;1797;-70
2024/02/01 09:57:40;;;;;;;;;;;17.50;61.40;;;;;;5017569;28;1633;-69
2024/02/01 10:00:14;;;;;;;;;;;17.50;61.30;;;;;;5018039;28;1453;-70
2024/02/01 10:02:44;;;;;;;;;;;17.50;61.20;;;;;;5018784;28;1655;-73
2024/02/01 10:05:09;;;;;;;;;;;17.50;61.20;;;;;;5017600;28;1857;-73
2024/02/01 10:07:35;;;;;;;;;;;17.50;61.20;;;;;;5013855;28;1324;-73
2024/02/01 10:10:03;;;;;;;;;;;17.50;61.20;;;;;;5016096;28;1951;-73
2024/02/01 10:12:29;;;;;;;;;;;17.50;61.10;;;;;;5015983;28;1483;-71
2024/02/01 10:14:57;;;;;;;;;;;17.50;61.10;;;;;;5017677;28;1454;-73
2024/02/01 10:17:23;;;;;;;;;;;17.60;61.10;;;;;;5018715;28;1454;-72
2024/02/01 10:19:49;;;;;;;;;;;17.60;61.10;;;;;;5018057;28;1644;-72
2024/02/01 10:22:15;;;;;;;;;;;17.60;61.00;;;;;;5029534;28;1387;-72
2024/02/01 10:24:51;;;;;;;;;;;17.60;61.00;;;;;;5018784;28;1178;-71
2024/02/01 10:27:19;;;;;;;;;;;17.60;61.00;;;;;;5022051;28;1462;-73
2024/02/01 10:29:45;;;;;;;;;;;17.60;61.00;;;;;;5020864;28;1898;-72
2024/02/01 10:32:14;;;;;;;;;;;17.60;61.60;;;;;;5021504;28;1502;-72
2024/02/01 10:34:45;;;;;;;;;;;17.70;61.40;;;;;;5019767;28;1435;-73
2024/02/01 10:37:12;;;;;;;;;;;17.70;61.10;;;;;;5021656;28;2246;-73
2024/02/01 10:39:38;;;;;;;;;;;17.70;61.00;;;;;;5019356;28;1249;-72
2024/02/01 10:42:05;;;;;;;;;;;17.70;61.00;;;;;;5021540;28;1183;-73
2024/02/01 10:44:32;;;;;;;;;;;17.70;61.00;;;;;;5013642;28;1310;-73
2024/02/01 10:46:58;;;;;;;;;;;17.70;61.10;;;;;;5029157;28;1264;-73
2024/02/01 10:49:25;;;;;;;;;;;17.60;61.10;;;;;;5020171;28;1961;-72
2024/02/01 10:51:51;;;;;;;;;;;17.60;61.10;;;;;;5021066;28;1337;-72
2024/02/01 10:54:18;;;;;;;;;;;17.60;61.00;;;;;;5032451;28;1065;-72
2024/02/01 10:56:44;;;;;;;;;;;17.60;60.90;;;;;;5027243;28;1669;-72
2024/02/01 10:59:09;;;;;;;;;;;17.60;60.00;;;;;;5029422;28;1408;-71
2024/02/01 11:01:35;;;;;;;;;;;17.60;59.80;;;;;;5030639;28;1010;-73
2024/02/01 11:04:01;;;;;;;;;;;17.60;59.30;;;;;;5031404;28;1320;-72
2024/02/01 11:06:27;;;;;;;;;;;17.60;58.90;;;;;;5032162;28;1327;-72
2024/02/01 11:08:53;;;;;;;;;;;17.60;58.50;;;;;;5015227;28;1965;-73
2024/02/01 11:11:20;;;;;;;;;;;17.60;58.10;;;;;;5024329;28;1358;-70
2024/02/01 11:14:09;;;;;;;;;;;17.60;58.40;;;;;;5021303;28;1479;-72
2024/02/01 11:16:39;;;;;;;;;;;17.70;57.80;;;;;;5019574;28;1341;-71
2024/02/01 11:19:08;;;;;;;;;;;17.80;56.30;;;;;;5020240;28;1519;-70
2024/02/01 11:21:34;;;;;;;;;;;17.80;55.30;;;;;;5018665;28;1148;-70
2024/02/01 11:24:05;;;;;;;;;;;17.70;55.30;;;;;;5021887;28;4678;-71
2024/02/01 11:26:39;;;;;;;;;;;17.70;55.40;;;;;;5020177;28;1327;-70
2024/02/01 11:29:06;;;;;;;;;;;17.70;55.30;;;;;;5020404;28;1902;-70
2024/02/01 11:31:32;;;;;;;;;;;17.70;55.30;;;;;;5020173;28;1408;-69
2024/02/01 11:34:05;;;;;;;;;;;17.70;55.20;;;;;;5019772;28;1455;-70
2024/02/01 11:36:37;;;;;;;;;;;17.70;55.40;;;;;;5020682;28;1720;-71
2024/02/01 11:39:03;;;;;;;;;;;17.70;56.70;;;;;;5020505;28;1619;-70
2024/02/01 11:41:30;;;;;;;;;;;17.70;57.00;;;;;;5020250;28;1260;-71
2024/02/01 11:43:56;;;;;;;;;;;17.70;57.00;;;;;;5017208;28;1552;-71
2024/02/01 11:46:21;;;;;;;;;;;17.70;57.00;;;;;;5016534;28;1450;-71
2024/02/01 11:48:46;;;;;;;;;;;17.70;57.10;;;;;;5022939;28;1894;-71
2024/02/01 11:51:12;;;;;;;;;;;17.70;57.30;;;;;;5018885;28;1854;-71
2024/02/01 11:53:38;;;;;;;;;;;17.70;57.40;;;;;;5008972;28;1381;-72
2024/02/01 11:56:05;;;;;;;;;;;17.70;57.60;;;;;;5017719;28;1400;-71
2024/02/01 11:58:31;;;;;;;;;;;17.60;57.70;;;;;;5017627;28;1588;-71
2024/02/01 12:00:57;;;;;;;;;;;17.60;57.90;;;;;;5019366;28;1498;-71
2024/02/01 12:03:23;;;;;;;;;;;17.60;57.90;;;;;;5017319;28;1523;-71
2024/02/01 12:05:49;;;;;;;;;;;17.60;58.00;;;;;;5018572;28;1331;-71
2024/02/01 12:08:14;;;;;;;;;;;17.60;58.10;;;;;;5021078;28;1886;-71
2024/02/01 12:10:45;;;;;;;;;;;17.60;58.10;;;;;;5018844;28;1621;-72
2024/02/01 12:13:13;;;;;;;;;;;17.60;58.20;;;;;;5020868;28;1433;-71
2024/02/01 12:15:42;;;;;;;;;;;17.60;58.20;;;;;;5017508;28;1340;-71
2024/02/01 12:18:11;;;;;;;;;;;17.60;58.30;;;;;;5015685;28;1284;-72
2024/02/01 12:20:41;;;;;;;;;;;17.60;58.40;;;;;;5021892;28;1234;-71
2024/02/01 12:23:06;;;;;;;;;;;17.60;58.40;;;;;;5003863;28;1244;-72
2024/02/01 12:25:32;;;;;;;;;;;17.60;58.50;;;;;;5021240;28;1797;-72
2024/02/01 12:27:58;;;;;;;;;;;17.60;58.60;;;;;;5017924;28;1292;-71
2024/02/01 12:30:26;;;;;;;;;;;17.60;58.70;;;;;;5016811;28;1946;-72
2024/02/01 12:32:52;;;;;;;;;;;17.60;58.70;;;;;;5019697;28;1333;-72
2024/02/01 12:35:18;;;;;;;;;;;17.60;58.80;;;;;;5003301;28;1457;-72
2024/02/01 12:37:44;;;;;;;;;;;17.50;58.80;;;;;;5017543;28;1371;-71
2024/02/01 12:40:10;;;;;;;;;;;17.60;58.90;;;;;;5019025;28;1617;-70
2024/02/01 12:42:36;;;;;;;;;;;17.60;59.00;;;;;;5018189;28;1338;-70
2024/02/01 12:45:02;;;;;;;;;;;17.50;59.00;;;;;;5020315;28;1261;-70
2024/02/01 12:47:29;;;;;;;;;;;17.50;59.10;;;;;;5019848;28;1347;-71
2024/02/01 12:49:56;;;;;;;;;;;17.50;59.10;;;;;;5017134;28;2006;-71
2024/02/01 12:52:21;;;;;;;;;;;17.50;59.20;;;;;;5017596;28;975;-70
2024/02/01 12:54:47;;;;;;;;;;;17.50;59.30;;;;;;5020396;28;1256;-70
2024/02/01 12:57:12;;;;;;;;;;;17.50;59.30;;;;;;5016024;28;1952;-71
2024/02/01 12:59:38;;;;;;;;;;;17.50;59.30;;;;;;5017555;28;1368;-71
2024/02/01 13:02:04;;;;;;;;;;;17.50;59.40;;;;;;5018810;28;1420;-70
2024/02/01 13:04:30;;;;;;;;;;;17.50;59.40;;;;;;5016972;28;1502;-70
2024/02/01 13:06:55;;;;;;;;;;;17.50;59.50;;;;;;5015195;28;1311;-71
2024/02/01 13:09:33;;;;;;;;;;;17.50;59.50;;;;;;5016773;28;1906;-70
2024/02/01 13:11:58;;;;;;;;;;;17.40;59.50;;;;;;5021125;28;1462;-70
2024/02/01 13:14:28;;;;;;;;;;;17.40;59.50;;;;;;5017914;28;1113;-71
2024/02/01 13:16:57;;;;;;;;;;;17.40;59.60;;;;;;5017697;28;1382;-70
2024/02/01 13:19:23;;;;;;;;;;;17.40;59.70;;;;;;5016685;28;1440;-70
2024/02/01 13:21:49;;;;;;;;;;;17.40;59.70;;;;;;5015674;28;1607;-70
2024/02/01 13:24:14;;;;;;;;;;;17.40;59.70;;;;;;5016535;28;1687;-70
2024/02/01 13:26:40;;;;;;;;;;;17.40;59.80;;;;;;5013333;28;1907;-70
2024/02/01 13:29:07;;;;;;;;;;;17.40;59.80;;;;;;5018117;28;1887;-71
2024/02/01 13:31:32;;;;;;;;;;;17.40;59.90;;;;;;5014473;28;1269;-70
2024/02/01 13:33:59;;;;;;;;;;;17.40;59.90;;;;;;5016437;28;1190;-70
2024/02/01 13:36:24;;;;;;;;;;;17.40;59.90;;;;;;5016174;28;1485;-69
2024/02/01 13:38:50;;;;;;;;;;;17.40;60.00;;;;;;5018127;28;1510;-70
2024/02/01 13:41:15;;;;;;;;;;;17.40;59.90;;;;;;5017417;28;1447;-70
2024/02/01 13:43:41;;;;;;;;;;;17.40;59.90;;;;;;5016415;28;1709;-69
2024/02/01 13:46:07;;;;;;;;;;;17.40;59.90;;;;;;5018331;28;1295;-69
2024/02/01 13:48:32;;;;;;;;;;;17.40;59.90;;;;;;5000115;28;2116;-70
2024/02/01 13:51:03;;;;;;;;;;;17.40;59.80;;;;;;5018335;28;1564;-70
2024/02/01 13:53:29;;;;;;;;;;;17.40;59.90;;;;;;5016452;28;1486;-69
2024/02/01 13:55:54;;;;;;;;;;;17.40;59.80;;;;;;5021733;28;1849;-69
2024/02/01 13:58:19;;;;;;;;;;;17.50;59.80;;;;;;5019897;28;1269;-69
2024/02/01 14:00:45;;;;;;;;;;;17.50;59.80;;;;;;5019954;28;1248;-69
2024/02/01 14:03:10;;;;;;;;;;;17.50;59.80;;;;;;5020920;28;1179;-70
2024/02/01 14:05:36;;;;;;;;;;;17.50;59.70;;;;;;5019842;28;1077;-68
2024/02/01 14:08:02;;;;;;;;;;;17.50;59.70;;;;;;5020236;28;1304;-70
2024/02/01 14:10:28;;;;;;;;;;;17.50;59.70;;;;;;5020963;28;1975;-69
2024/02/01 14:12:53;;;;;;;;;;;17.50;59.60;;;;;;5022042;28;1222;-69
2024/02/01 14:15:19;;;;;;;;;;;17.50;59.60;;;;;;5023685;28;1283;-69
2024/02/01 14:17:44;;;;;;;;;;;17.60;59.70;;;;;;5020092;28;1546;-69
2024/02/01 14:20:13;;;;;;;;;;;17.60;59.80;;;;;;5021846;28;1256;-69
2024/02/01 14:22:39;;;;;;;;;;;17.60;59.60;;;;;;5029647;28;1185;-69
2024/02/01 14:25:05;;;;;;;;;;;17.60;59.70;;;;;;5020067;28;1246;-69
2024/02/01 14:27:31;;;;;;;;;;;17.60;59.70;;;;;;5016062;28;1773;-69
2024/02/01 14:29:56;;;;;;;;;;;17.60;59.70;;;;;;5019517;28;1894;-69
2024/02/01 14:32:22;;;;;;;;;;;17.60;59.70;;;;;;5022367;28;1589;-69
2024/02/01 14:34:47;;;;;;;;;;;17.50;59.70;;;;;;5019629;28;1218;-69
2024/02/01 14:37:13;;;;;;;;;;;17.50;59.70;;;;;;5023809;28;1316;-69
2024/02/01 14:39:39;;;;;;;;;;;17.50;59.80;;;;;;5028163;28;1448;-69
2024/02/01 14:42:05;;;;;;;;;;;17.50;59.80;;;;;;5028953;28;1369;-69
2024/02/01 14:44:31;;;;;;;;;;;17.50;59.80;;;;;;5004964;28;1372;-69
2024/02/01 14:46:56;;;;;;;;;;;17.50;59.80;;;;;;5019383;28;1383;-69
2024/02/01 14:49:21;;;;;;;;;;;17.50;59.90;;;;;;5018539;28;1930;-69
2024/02/01 14:51:47;;;;;;;;;;;17.50;59.90;;;;;;5021375;28;1468;-69
2024/02/01 14:54:12;;;;;;;;;;;17.50;59.90;;;;;;5021240;28;1309;-70
2024/02/01 14:56:38;;;;;;;;;;;17.50;59.90;;;;;;5021732;28;1351;-70
2024/02/01 14:59:04;;;;;;;;;;;17.40;59.90;;;;;;5020484;28;1407;-69
2024/02/01 15:01:29;;;;;;;;;;;17.50;60.00;;;;;;5019404;28;1191;-69
2024/02/01 15:03:55;;;;;;;;;;;17.50;60.00;;;;;;5026654;28;1358;-69
2024/02/01 15:06:20;;;;;;;;;;;17.50;60.00;;;;;;5025565;28;1448;-67
2024/02/01 15:08:46;;;;;;;;;;;17.60;60.60;;;;;;5020296;28;1921;-67